Time;durP1;ratioP1;P1;durP2;ratioP2;P2;SDS_P1;SDS_P2;PMS_P1;PMS_P2;Temp;Humidity;BMP_temperature;BMP_pressure;BME280_temperature;BME280_humidity;BME280_pressure;Samples;Min_cycle;Max_cycle;Signal;HPM_P1;HPM_P2
2023/02/27 00:02:24;;;;;;;1999.90;999.90;;;-1.10;99.90;;;;;;5032632;28;20469;-67
2023/02/27 00:04:53;;;;;;;1999.90;999.90;;;-1.10;99.90;;;;;;5032934;28;20437;-70
2023/02/27 00:07:24;;;;;;;1999.90;999.90;;;-1.20;99.90;;;;;;5032918;28;20449;-69
2023/02/27 00:09:51;;;;;;;1999.90;999.90;;;-1.30;99.90;;;;;;5032961;28;20682;-68
2023/02/27 00:12:19;;;;;;;1999.90;999.90;;;-1.30;99.90;;;;;;5032861;28;20782;-70
2023/02/27 00:14:46;;;;;;;1999.90;999.90;;;-1.30;99.90;;;;;;5032574;28;20449;-69
2023/02/27 00:17:13;;;;;;;1999.90;999.90;;;-1.40;99.90;;;;;;5033500;28;20445;-68
2023/02/27 00:19:40;;;;;;;1999.90;999.90;;;-1.30;99.90;;;;;;5033511;28;20452;-69
2023/02/27 00:22:06;;;;;;;1999.90;999.90;;;-1.40;99.90;;;;;;5032918;28;20441;-68
2023/02/27 00:24:33;;;;;;;1999.90;999.90;;;-1.40;99.90;;;;;;5033421;28;20457;-68
2023/02/27 00:27:00;;;;;;;1999.90;999.90;;;-1.40;99.90;;;;;;5033582;28;20496;-69
2023/02/27 00:29:28;;;;;;;1999.90;999.90;;;-1.40;99.90;;;;;;5033292;28;20449;-69
2023/02/27 00:31:55;;;;;;;1999.90;999.90;;;-1.40;99.90;;;;;;5032224;28;20499;-66
2023/02/27 00:34:22;;;;;;;1999.90;999.90;;;-1.30;99.90;;;;;;5031455;28;20991;-67
2023/02/27 00:36:49;;;;;;;1999.90;999.90;;;-1.30;99.90;;;;;;5032856;28;20452;-69
2023/02/27 00:39:15;;;;;;;1999.90;999.90;;;-1.40;99.90;;;;;;5034319;28;20451;-68
2023/02/27 00:41:42;;;;;;;1999.90;999.90;;;-1.40;99.90;;;;;;5038050;28;20447;-68
2023/02/27 00:44:09;;;;;;;1999.90;999.90;;;-1.40;99.90;;;;;;5030492;28;21013;-70
2023/02/27 00:46:37;;;;;;;1999.90;999.90;;;-1.50;99.90;;;;;;5032054;28;20441;-68
2023/02/27 00:49:04;;;;;;;1999.90;999.90;;;-1.50;99.90;;;;;;5031735;28;20455;-69
2023/02/27 00:51:31;;;;;;;1999.90;999.90;;;-1.50;99.90;;;;;;5031127;28;20492;-68
2023/02/27 00:53:57;;;;;;;1999.90;999.90;;;-1.50;99.90;;;;;;5030746;28;20460;-71
2023/02/27 00:56:24;;;;;;;1999.90;999.90;;;-1.50;99.90;;;;;;5031737;28;20445;-69
2023/02/27 00:58:51;;;;;;;1999.90;999.90;;;-1.50;99.90;;;;;;5032101;28;20955;-68
2023/02/27 01:01:18;;;;;;;1999.90;999.90;;;-1.60;99.90;;;;;;5032240;28;20455;-70
2023/02/27 01:03:46;;;;;;;1999.90;999.90;;;-1.60;99.90;;;;;;5030321;28;20469;-69
2023/02/27 01:06:13;;;;;;;1999.90;999.90;;;-1.60;99.90;;;;;;5031788;28;20540;-67
2023/02/27 01:08:39;;;;;;;1999.90;999.90;;;-1.60;99.90;;;;;;5031453;28;20456;-68
2023/02/27 01:11:06;;;;;;;1999.90;999.90;;;-1.70;99.90;;;;;;5031691;28;20452;-69
2023/02/27 01:13:33;;;;;;;1999.90;999.90;;;-1.70;99.90;;;;;;5030002;28;20493;-68
2023/02/27 01:16:00;;;;;;;1999.90;999.90;;;-1.80;99.90;;;;;;5031177;28;20445;-67
2023/02/27 01:18:27;;;;;;;1999.90;999.90;;;-1.80;99.90;;;;;;5031267;28;20448;-70
2023/02/27 01:20:55;;;;;;;1999.90;999.90;;;-1.70;99.90;;;;;;5030886;28;20448;-69
2023/02/27 01:23:23;;;;;;;1999.90;999.90;;;-1.70;99.90;;;;;;5030089;28;20491;-69
2023/02/27 01:25:50;;;;;;;1999.90;999.90;;;-1.70;99.90;;;;;;5031150;28;20452;-68
2023/02/27 01:28:16;;;;;;;1999.90;999.90;;;-1.70;99.90;;;;;;5031207;28;20453;-69
2023/02/27 01:30:43;;;;;;;1999.90;999.90;;;-1.70;99.90;;;;;;5030977;28;21172;-69
2023/02/27 01:33:10;;;;;;;1999.90;999.90;;;-1.70;99.90;;;;;;5029783;28;20489;-68
2023/02/27 01:35:37;;;;;;;1999.90;999.90;;;-1.70;99.90;;;;;;5031239;28;20463;-68
2023/02/27 01:38:05;;;;;;;1999.90;999.90;;;-1.70;99.90;;;;;;5030833;28;20471;-69
2023/02/27 01:40:36;;;;;;;1999.90;999.90;;;-1.70;99.90;;;;;;5031059;28;20472;-67
2023/02/27 01:43:02;;;;;;;1999.90;999.90;;;-1.70;99.90;;;;;;5029557;28;20461;-68
2023/02/27 01:45:32;;;;;;;1999.90;999.90;;;-1.70;99.90;;;;;;5030808;28;20453;-68
2023/02/27 01:48:08;;;;;;;1999.90;999.90;;;-1.70;99.90;;;;;;5030848;28;20965;-70
2023/02/27 01:50:37;;;;;;;1999.90;999.90;;;-1.80;99.90;;;;;;5030529;28;20958;-69
2023/02/27 01:53:06;;;;;;;1999.90;999.90;;;-1.80;99.90;;;;;;5029264;28;20578;-69
2023/02/27 01:55:37;;;;;;;1999.90;999.90;;;-1.80;99.90;;;;;;5030043;28;20459;-69
2023/02/27 01:58:06;;;;;;;1999.90;999.90;;;-1.70;99.90;;;;;;5030357;28;21290;-70
2023/02/27 02:00:32;;;;;;;1999.90;999.90;;;-1.80;99.90;;;;;;5030525;28;20449;-68
2023/02/27 02:03:08;;;;;;;1999.90;999.90;;;-1.80;99.90;;;;;;5028882;28;20473;-69
2023/02/27 02:05:35;;;;;;;1999.90;999.90;;;-1.90;99.90;;;;;;5030263;28;20456;-69
2023/02/27 02:08:03;;;;;;;1999.90;999.90;;;-1.80;99.90;;;;;;5030121;28;20441;-68
2023/02/27 02:10:32;;;;;;;1999.90;999.90;;;-1.80;99.90;;;;;;5030350;28;20452;-69
2023/02/27 02:13:00;;;;;;;1999.90;999.90;;;-1.80;99.90;;;;;;5029190;28;20493;-67
2023/02/27 02:15:36;;;;;;;1999.90;999.90;;;-1.80;99.90;;;;;;5030049;28;20453;-68
2023/02/27 02:18:15;;;;;;;1999.90;999.90;;;-1.80;99.90;;;;;;5030325;28;21162;-68
2023/02/27 02:21:33;;;;;;;1999.90;999.90;;;-1.80;99.90;;;;;;5030175;28;20445;-70
2023/02/27 02:24:35;;;;;;;1999.90;999.90;;;-1.90;99.90;;;;;;5029049;28;20472;-70
2023/02/27 02:27:18;;;;;;;1999.90;999.90;;;-1.90;99.90;;;;;;4997595;28;20467;-68
2023/02/27 02:30:18;;;;;;;1999.90;999.90;;;-1.80;99.90;;;;;;5030087;28;20823;-68
2023/02/27 02:33:27;;;;;;;1999.90;999.90;;;-1.70;99.90;;;;;;5028380;28;20485;-68
2023/02/27 02:36:23;;;;;;;1999.90;999.90;;;-1.60;99.90;;;;;;5029999;28;21266;-68
2023/02/27 02:39:19;;;;;;;1999.90;999.90;;;-1.70;99.90;;;;;;5030138;28;20506;-69
2023/02/27 02:41:58;;;;;;;1999.90;999.90;;;-1.80;99.90;;;;;;5029733;28;20444;-65
2023/02/27 02:44:30;;;;;;;1999.90;999.90;;;-1.70;99.90;;;;;;5028730;28;20440;-67
2023/02/27 02:47:05;;;;;;;1999.90;999.90;;;-1.80;99.90;;;;;;5030181;28;20445;-65
2023/02/27 02:49:43;;;;;;;1999.90;999.90;;;-1.80;99.90;;;;;;5029699;28;20448;-68
2023/02/27 02:52:14;;;;;;;1999.90;999.90;;;-1.90;99.90;;;;;;5029426;28;20487;-69
2023/02/27 02:54:47;;;;;;;1999.90;999.90;;;-1.90;99.90;;;;;;5029571;28;20449;-69
2023/02/27 02:57:19;;;;;;;1999.90;999.90;;;-1.90;99.90;;;;;;5029821;28;20452;-69
2023/02/27 02:59:52;;;;;;;1999.90;999.90;;;-1.90;99.90;;;;;;5029887;28;20447;-67
2023/02/27 03:02:22;;;;;;;1999.90;999.90;;;-1.90;99.90;;;;;;5028588;28;20476;-70
2023/02/27 03:04:53;;;;;;;1999.90;999.90;;;-1.90;99.90;;;;;;5029285;28;20461;-71
2023/02/27 03:07:25;;;;;;;1999.90;999.90;;;-1.90;99.90;;;;;;5029298;28;20951;-69
2023/02/27 03:09:56;;;;;;;1999.90;999.90;;;-1.90;99.90;;;;;;5029656;28;20466;-69
2023/02/27 03:12:26;;;;;;;1999.90;999.90;;;-1.90;99.90;;;;;;5028615;28;20484;-70
2023/02/27 03:14:59;;;;;;;1999.90;999.90;;;-1.90;99.90;;;;;;5029780;28;20522;-67
2023/02/27 03:17:40;;;;;;;1999.90;999.90;;;-1.90;99.90;;;;;;5033567;28;20445;-69
2023/02/27 03:20:09;;;;;;;1999.90;999.90;;;-1.90;99.90;;;;;;5033500;28;20466;-68
2023/02/27 03:22:39;;;;;;;1999.90;999.90;;;-1.80;99.90;;;;;;5032382;28;20651;-67
2023/02/27 03:25:11;;;;;;;1999.90;999.90;;;-1.80;99.90;;;;;;5032945;28;20970;-68
2023/02/27 03:27:43;;;;;;;1999.90;999.90;;;-1.80;99.90;;;;;;5033048;28;20808;-71
2023/02/27 03:30:15;;;;;;;1999.90;999.90;;;-1.90;99.90;;;;;;5033353;28;20456;-68
2023/02/27 03:32:48;;;;;;;1999.90;999.90;;;-1.90;99.90;;;;;;5031776;28;20484;-69
2023/02/27 03:35:15;;;;;;;1999.90;999.90;;;-1.90;99.90;;;;;;5033299;28;20819;-68
2023/02/27 03:37:52;;;;;;;1999.90;999.90;;;-1.90;99.90;;;;;;5033056;28;20451;-68
2023/02/27 03:40:29;;;;;;;1999.90;999.90;;;-1.90;99.90;;;;;;5032911;28;20965;-70
2023/02/27 03:43:05;;;;;;;1999.90;999.90;;;-1.90;99.90;;;;;;5031529;28;20461;-67
2023/02/27 03:45:37;;;;;;;1999.90;999.90;;;-2.00;99.90;;;;;;5032967;28;20527;-66
2023/02/27 03:48:05;;;;;;;1999.90;999.90;;;-2.00;99.90;;;;;;5032815;28;21077;-68
2023/02/27 03:50:32;;;;;;;1999.90;999.90;;;-2.00;99.90;;;;;;5032784;28;20449;-67
2023/02/27 03:52:59;;;;;;;1999.90;999.90;;;-1.90;99.90;;;;;;5031700;28;20492;-69
2023/02/27 03:55:33;;;;;;;1999.90;999.90;;;-1.90;99.90;;;;;;5032480;28;20819;-68
2023/02/27 03:58:00;;;;;;;1999.90;999.90;;;-2.00;99.90;;;;;;5033052;28;20441;-68
2023/02/27 04:00:28;;;;;;;1999.90;999.90;;;-2.00;99.90;;;;;;5032762;28;20958;-66
2023/02/27 04:02:59;;;;;;;1999.90;999.90;;;-1.90;99.90;;;;;;5031200;28;20461;-68
2023/02/27 04:05:27;;;;;;;1999.90;999.90;;;-1.90;99.90;;;;;;5032527;28;20445;-67
2023/02/27 04:08:07;;;;;;;1999.90;999.90;;;-1.90;99.90;;;;;;5032730;28;20441;-67
2023/02/27 04:11:11;;;;;;;1999.90;999.90;;;-1.90;99.90;;;;;;5032571;28;20489;-68
2023/02/27 04:13:51;;;;;;;1999.90;999.90;;;-1.90;99.90;;;;;;5028618;28;20854;-67
2023/02/27 04:16:47;;;;;;;1999.90;999.90;;;-1.90;99.90;;;;;;5032724;28;20448;-69
2023/02/27 04:19:42;;;;;;;1999.90;999.90;;;-2.00;99.90;;;;;;5019247;28;20456;-67
2023/02/27 04:22:21;;;;;;;1999.90;999.90;;;-2.00;99.90;;;;;;5031871;28;20444;-67
2023/02/27 04:24:56;;;;;;;1999.90;999.90;;;-2.00;99.90;;;;;;5031841;28;20444;-67
2023/02/27 04:27:35;;;;;;;1999.90;999.90;;;-2.00;99.90;;;;;;5030778;28;20429;-68
2023/02/27 04:30:13;;;;;;;1999.90;999.90;;;-2.00;99.90;;;;;;5031739;28;20800;-68
2023/02/27 04:32:43;;;;;;;1999.90;999.90;;;-2.00;99.90;;;;;;5031072;28;20511;-67
2023/02/27 04:35:14;;;;;;;1999.90;999.90;;;-2.00;99.90;;;;;;5032046;28;20500;-67
2023/02/27 04:37:48;;;;;;;1999.90;999.90;;;-2.00;99.90;;;;;;5032148;28;20993;-69
2023/02/27 04:40:19;;;;;;;1999.90;999.90;;;-2.00;99.90;;;;;;5031905;28;20440;-69
2023/02/27 04:42:53;;;;;;;1999.90;999.90;;;-2.00;99.90;;;;;;5030706;28;20540;-68
2023/02/27 04:45:22;;;;;;;1999.90;999.90;;;-2.10;99.90;;;;;;5032154;28;20814;-67
2023/02/27 04:47:55;;;;;;;1999.90;999.90;;;-2.00;99.90;;;;;;5031726;28;21161;-68
2023/02/27 04:50:25;;;;;;;1999.90;999.90;;;-2.10;99.90;;;;;;5032233;28;20456;-68
2023/02/27 04:52:57;;;;;;;1999.90;999.90;;;-2.10;99.90;;;;;;5030357;28;21007;-68
2023/02/27 04:55:26;;;;;;;1999.90;999.90;;;-2.00;99.90;;;;;;5032183;28;20445;-67
2023/02/27 04:57:59;;;;;;;1999.90;999.90;;;-2.10;99.90;;;;;;5031692;28;20834;-67
2023/02/27 05:00:29;;;;;;;1999.90;999.90;;;-2.10;99.90;;;;;;5031425;28;20449;-70
2023/02/27 05:03:01;;;;;;;1999.90;999.90;;;-2.10;99.90;;;;;;5030429;28;20504;-69
2023/02/27 05:05:31;;;;;;;1999.90;999.90;;;-2.00;99.90;;;;;;5031165;28;20496;-67
2023/02/27 05:08:03;;;;;;;1999.90;999.90;;;-2.10;99.90;;;;;;5031386;28;20445;-68
2023/02/27 05:10:36;;;;;;;1999.90;999.90;;;-2.10;99.90;;;;;;5031328;28;20451;-68
2023/02/27 05:13:09;;;;;;;1999.90;999.90;;;-2.10;99.90;;;;;;5030217;28;20477;-69
2023/02/27 05:15:40;;;;;;;1999.90;999.90;;;-2.10;99.90;;;;;;5030920;28;20989;-66
2023/02/27 05:18:09;;;;;;;1999.90;999.90;;;-2.10;99.90;;;;;;5031204;28;20472;-68
2023/02/27 05:20:47;;;;;;;1999.90;999.90;;;-2.00;99.90;;;;;;5031269;28;20813;-66
2023/02/27 05:23:20;;;;;;;1999.90;999.90;;;-2.10;99.90;;;;;;5029846;28;20858;-67
2023/02/27 05:25:53;;;;;;;1999.90;999.90;;;-2.10;99.90;;;;;;5031022;28;20441;-67
2023/02/27 05:28:26;;;;;;;1999.90;999.90;;;-2.10;99.90;;;;;;5030846;28;20449;-67
2023/02/27 05:30:57;;;;;;;1999.90;999.90;;;-2.20;99.90;;;;;;5030798;28;20441;-69
2023/02/27 05:33:29;;;;;;;1999.90;999.90;;;-2.20;99.90;;;;;;5029803;28;20535;-69
2023/02/27 05:36:02;;;;;;;1999.90;999.90;;;-2.20;99.90;;;;;;5031607;28;20447;-68
2023/02/27 05:38:36;;;;;;;1999.90;999.90;;;-2.20;99.90;;;;;;5031166;28;20449;-69
2023/02/27 05:41:08;;;;;;;1999.90;999.90;;;-2.20;99.90;;;;;;5030736;28;20825;-66
2023/02/27 05:43:40;;;;;;;1999.90;999.90;;;-2.30;99.90;;;;;;5029429;28;20449;-67
2023/02/27 05:46:13;;;;;;;1999.90;999.90;;;-2.20;99.90;;;;;;5030791;28;20440;-68
2023/02/27 05:48:46;;;;;;;1999.90;999.90;;;-2.20;99.90;;;;;;5030754;28;20453;-68
2023/02/27 05:51:14;;;;;;;1999.90;999.90;;;-2.30;99.90;;;;;;5030265;28;20441;-68
2023/02/27 05:53:47;;;;;;;1999.90;999.90;;;-2.30;99.90;;;;;;5029876;28;20485;-68
2023/02/27 05:56:18;;;;;;;1999.90;999.90;;;-2.30;99.90;;;;;;5030393;28;20463;-67
2023/02/27 05:58:51;;;;;;;1999.90;999.90;;;-2.30;99.90;;;;;;5030635;28;20448;-67
2023/02/27 06:01:18;;;;;;;1999.90;999.90;;;-2.30;99.90;;;;;;5030185;28;20447;-67
2023/02/27 06:03:45;;;;;;;1999.90;999.90;;;-2.40;99.90;;;;;;5028545;28;20547;-69
2023/02/27 06:06:16;;;;;;;1999.90;999.90;;;-2.40;99.90;;;;;;5030179;28;20532;-67
2023/02/27 06:08:43;;;;;;;1999.90;999.90;;;-2.50;99.90;;;;;;5029811;28;20437;-66
2023/02/27 06:11:10;;;;;;;1999.90;999.90;;;-2.50;99.90;;;;;;5030038;28;20445;-68
2023/02/27 06:13:37;;;;;;;1999.90;999.90;;;-2.50;99.90;;;;;;5028602;28;20485;-66
2023/02/27 06:16:07;;;;;;;1999.90;999.90;;;-2.50;99.90;;;;;;5030321;28;20938;-68
2023/02/27 06:18:33;;;;;;;1999.90;999.90;;;-2.50;99.90;;;;;;5029881;28;20441;-69
2023/02/27 06:21:00;;;;;;;1999.90;999.90;;;-2.50;99.90;;;;;;5030116;28;20828;-67
2023/02/27 06:23:27;;;;;;;1999.90;999.90;;;-2.50;99.90;;;;;;5029536;28;20487;-67
2023/02/27 06:25:54;;;;;;;1999.90;999.90;;;-2.50;99.90;;;;;;5029998;28;20471;-68
2023/02/27 06:28:20;;;;;;;1999.90;999.90;;;-2.40;99.90;;;;;;5030089;28;20449;-67
2023/02/27 06:30:47;;;;;;;1999.90;999.90;;;-2.50;99.90;;;;;;5029553;28;20456;-67
2023/02/27 06:33:15;;;;;;;1999.90;999.90;;;-2.40;99.90;;;;;;5028538;28;20488;-68
2023/02/27 06:35:42;;;;;;;1999.90;999.90;;;-2.40;99.90;;;;;;5029995;28;20996;-68
2023/02/27 06:38:09;;;;;;;1999.90;999.90;;;-2.30;99.90;;;;;;5029253;28;20455;-68
2023/02/27 06:40:37;;;;;;;1999.90;999.90;;;-2.30;99.90;;;;;;5029903;28;20891;-66
2023/02/27 06:43:03;;;;;;;1999.90;999.90;;;-2.30;99.90;;;;;;5028487;28;20511;-66
2023/02/27 06:45:30;;;;;;;1999.90;999.90;;;-2.40;99.90;;;;;;5030184;28;20544;-66
2023/02/27 06:47:57;;;;;;;1999.90;999.90;;;-2.40;99.90;;;;;;5029857;28;20953;-67
2023/02/27 06:50:26;;;;;;;1999.90;999.90;;;-2.30;99.90;;;;;;5031257;28;20835;-69
2023/02/27 06:52:52;;;;;;;1999.90;999.90;;;-2.20;99.90;;;;;;5032948;28;20465;-67
2023/02/27 06:55:21;;;;;;;1999.90;999.90;;;-2.10;99.90;;;;;;5033623;28;20492;-68
2023/02/27 06:57:49;;;;;;;1999.90;999.90;;;-2.10;99.90;;;;;;5033926;28;20535;-68
2023/02/27 07:00:16;;;;;;;1999.90;999.90;;;-2.00;99.90;;;;;;5034160;28;20815;-67
2023/02/27 07:02:43;;;;;;;1999.90;999.90;;;-1.90;99.90;;;;;;5032894;28;20603;-69
2023/02/27 07:05:11;;;;;;;1999.90;999.90;;;-1.80;99.90;;;;;;5033915;28;20444;-66
2023/02/27 07:07:40;;;;;;;1999.90;999.90;;;-1.70;99.90;;;;;;5025801;28;20469;-68
2023/02/27 07:10:11;;;;;;;1999.90;999.90;;;-1.60;99.90;;;;;;5023466;28;20452;-67
2023/02/27 07:12:38;;;;;;;1999.90;999.90;;;-1.50;99.90;;;;;;5030820;28;20465;-68
2023/02/27 07:15:06;;;;;;;1999.90;999.90;;;-1.50;99.90;;;;;;5032215;28;20480;-68
2023/02/27 07:17:32;;;;;;;1999.90;999.90;;;-1.30;99.90;;;;;;5027575;28;20455;-67
2023/02/27 07:19:59;;;;;;;1999.90;999.90;;;-1.20;99.90;;;;;;5032132;28;20463;-67
2023/02/27 07:22:26;;;;;;;1999.90;999.90;;;-1.10;99.90;;;;;;5032003;28;20471;-68
2023/02/27 07:24:54;;;;;;;1999.90;999.90;;;-1.00;99.90;;;;;;5032948;28;20448;-67
2023/02/27 07:27:21;;;;;;;1999.90;999.90;;;-0.90;99.90;;;;;;5034286;28;20471;-67
2023/02/27 07:29:48;;;;;;;1999.90;999.90;;;-0.80;99.90;;;;;;5033961;28;20444;-68
2023/02/27 07:32:15;;;;;;;1999.90;999.90;;;-0.70;99.90;;;;;;5034895;28;20455;-67
2023/02/27 07:34:42;;;;;;;1999.90;999.90;;;-0.70;99.90;;;;;;5032934;28;20905;-67
2023/02/27 07:37:08;;;;;;;1999.90;999.90;;;-0.60;99.90;;;;;;5033640;28;20452;-68
2023/02/27 07:39:35;;;;;;;1999.90;999.90;;;-0.50;99.90;;;;;;5034095;28;20449;-67
2023/02/27 07:42:04;;;;;;;1999.90;999.90;;;-0.40;99.90;;;;;;5033942;28;20994;-68
2023/02/27 07:44:31;;;;;;;1999.90;999.90;;;-0.30;99.90;;;;;;5035044;28;20472;-67
2023/02/27 07:46:58;;;;;;;1999.90;999.90;;;-0.20;99.90;;;;;;5033333;28;20461;-66
2023/02/27 07:49:25;;;;;;;1999.90;999.90;;;-0.20;99.90;;;;;;5033732;28;20448;-66
2023/02/27 07:51:52;;;;;;;1999.90;999.90;;;-0.10;99.90;;;;;;5036984;28;20491;-67
2023/02/27 07:54:19;;;;;;;1999.90;999.90;;;-0.10;99.90;;;;;;5031792;28;20488;-68
2023/02/27 07:56:45;;;;;;;1999.90;999.90;;;0.00;99.90;;;;;;5032750;28;20444;-68
2023/02/27 07:59:14;;;;;;;1999.90;999.90;;;0.00;99.90;;;;;;5032801;28;20452;-67
2023/02/27 08:01:40;;;;;;;1999.90;999.90;;;0.10;99.90;;;;;;5032532;28;20449;-66
2023/02/27 08:04:07;;;;;;;1999.90;999.90;;;0.20;99.90;;;;;;5031402;28;20464;-67
2023/02/27 08:06:34;;;;;;;1999.90;999.90;;;0.20;99.90;;;;;;5032475;28;20449;-67
2023/02/27 08:09:01;;;;;;;1999.90;999.90;;;0.30;99.90;;;;;;5033837;28;20839;-67
2023/02/27 08:11:27;;;;;;;1999.90;999.90;;;0.40;99.90;;;;;;5032592;28;20445;-68
2023/02/27 08:13:54;;;;;;;1999.90;999.90;;;0.50;99.90;;;;;;5031336;28;20484;-67
2023/02/27 08:16:22;;;;;;;1999.90;999.90;;;0.60;99.90;;;;;;5032108;28;20449;-69
2023/02/27 08:21:37;;;;;;;1999.90;999.90;;;0.80;99.90;;;;;;5034204;28;20483;-68
2023/02/27 08:24:22;;;;;;;1999.90;999.90;;;0.80;99.90;;;;;;5031356;28;20733;-67
2023/02/27 08:26:52;;;;;;;1999.90;999.90;;;0.90;99.90;;;;;;5032327;28;20441;-67
2023/02/27 08:29:30;;;;;;;1999.90;999.90;;;1.00;99.90;;;;;;5032448;28;20445;-70
2023/02/27 08:31:58;;;;;;;1999.90;999.90;;;1.20;99.90;;;;;;5031918;28;20444;-68
2023/02/27 08:34:25;;;;;;;1999.90;999.90;;;1.30;99.90;;;;;;5031212;28;20485;-67
2023/02/27 08:36:52;;;;;;;1999.90;999.90;;;1.40;99.90;;;;;;5032243;28;20448;-68
2023/02/27 08:39:22;;;;;;;1999.90;999.90;;;1.50;99.90;;;;;;5032369;28;20540;-67
2023/02/27 08:41:52;;;;;;;1999.90;999.90;;;1.60;99.90;;;;;;5032542;28;20885;-67
2023/02/27 08:44:23;;;;;;;1999.90;999.90;;;1.70;99.90;;;;;;5030843;28;20472;-67
2023/02/27 08:46:57;;;;;;;1999.90;999.90;;;1.80;99.90;;;;;;5032269;28;20449;-67
2023/02/27 08:49:30;;;;;;;1999.90;999.90;;;1.90;99.90;;;;;;5032204;28;20453;-69
2023/02/27 08:52:02;;;;;;;1999.90;999.90;;;2.00;99.90;;;;;;5032064;28;20495;-67
2023/02/27 08:54:29;;;;;;;1999.90;999.90;;;2.20;99.90;;;;;;5030793;28;20507;-68
2023/02/27 08:56:56;;;;;;;1999.90;999.90;;;2.40;99.90;;;;;;5031381;28;20972;-68
2023/02/27 08:59:24;;;;;;;1999.90;999.90;;;2.60;99.90;;;;;;5031907;28;20477;-68
2023/02/27 09:01:51;;;;;;;1999.90;999.90;;;2.70;99.90;;;;;;5031329;28;20449;-68
2023/02/27 09:04:17;;;;;;;1999.90;999.90;;;2.70;99.90;;;;;;5030114;28;20457;-66
2023/02/27 09:06:45;;;;;;;1999.90;999.90;;;2.70;99.90;;;;;;5031444;28;21066;-67
2023/02/27 09:09:12;;;;;;;1999.90;999.90;;;2.90;99.90;;;;;;5031272;28;20449;-67
2023/02/27 09:11:39;;;;;;;1999.90;999.90;;;3.10;99.90;;;;;;5031618;28;20449;-67
2023/02/27 09:14:06;;;;;;;1999.90;999.90;;;3.00;99.90;;;;;;5028961;28;20481;-67
2023/02/27 09:16:33;;;;;;;1999.90;999.90;;;2.80;99.90;;;;;;5031252;28;20939;-69
2023/02/27 09:19:00;;;;;;;1999.90;999.90;;;2.90;99.90;;;;;;5031450;28;20445;-66
2023/02/27 09:21:28;;;;;;;1999.90;999.90;;;3.10;99.90;;;;;;5031464;28;20540;-71
2023/02/27 09:23:57;;;;;;;1999.90;999.90;;;3.40;99.90;;;;;;5029998;28;20516;-67
2023/02/27 09:26:24;;;;;;;1999.90;999.90;;;3.60;99.90;;;;;;5031366;28;20515;-67
2023/02/27 09:28:51;;;;;;;1999.90;999.90;;;3.70;99.90;;;;;;5031287;28;20445;-66
2023/02/27 09:31:17;;;;;;;1999.90;999.90;;;3.90;99.90;;;;;;5030910;28;20456;-66
2023/02/27 09:33:44;;;;;;;1999.90;999.90;;;4.10;99.90;;;;;;5029587;28;20471;-67
2023/02/27 09:36:11;;;;;;;1999.90;999.90;;;4.00;99.90;;;;;;5030823;28;20456;-66
2023/02/27 09:38:38;;;;;;;1999.90;999.90;;;4.00;99.90;;;;;;5024270;28;20470;-67
2023/02/27 09:41:19;;;;;;;1999.90;999.90;;;4.00;99.90;;;;;;5028754;28;20441;-67
2023/02/27 09:43:50;;;;;;;1999.90;999.90;;;3.70;99.90;;;;;;5021117;28;20465;-67
2023/02/27 09:46:19;;;;;;;1999.90;999.90;;;3.30;99.90;;;;;;5028755;28;20445;-66
2023/02/27 09:48:50;;;;;;;1999.90;999.90;;;3.50;99.90;;;;;;5026457;28;20441;-67
2023/02/27 09:51:18;;;;;;;1999.90;999.90;;;3.60;99.90;;;;;;5026394;28;20446;-67
2023/02/27 09:53:48;;;;;;;1999.90;999.90;;;3.50;99.90;;;;;;5025992;28;20464;-66
2023/02/27 09:56:21;;;;;;;1999.90;999.90;;;3.70;99.90;;;;;;5025902;28;21027;-66
2023/02/27 09:58:56;;;;;;;1999.90;999.90;;;4.10;99.90;;;;;;5025233;28;20449;-68
2023/02/27 10:01:26;;;;;;;1999.90;999.90;;;4.70;99.90;;;;;;5026812;28;20444;-68
2023/02/27 10:04:23;;;;;;;1999.90;999.90;;;4.80;99.90;;;;;;5026104;28;20974;-67
2023/02/27 10:06:52;;;;;;;1999.90;999.90;;;4.60;99.90;;;;;;5025589;28;20934;-68
2023/02/27 10:09:43;;;;;;;1999.90;999.90;;;5.00;99.90;;;;;;5027656;28;20447;-69
2023/02/27 10:12:22;;;;;;;1999.90;999.90;;;5.10;98.90;;;;;;5021128;28;20440;-68
2023/02/27 10:14:53;;;;;;;1999.90;999.90;;;5.00;99.00;;;;;;5026925;28;20843;-67
2023/02/27 10:17:24;;;;;;;1999.90;999.90;;;5.40;99.40;;;;;;5029531;28;20802;-66
2023/02/27 10:19:53;;;;;;;1999.90;999.90;;;5.10;97.90;;;;;;5027899;28;20564;-66
2023/02/27 10:22:25;;;;;;;1999.90;999.90;;;5.00;97.40;;;;;;5027409;28;20473;-67
2023/02/27 10:24:58;;;;;;;1999.90;999.90;;;4.90;97.80;;;;;;5026673;28;20452;-66
2023/02/27 10:27:26;;;;;;;1999.90;999.90;;;5.00;98.40;;;;;;5029403;28;20441;-67
2023/02/27 10:29:58;;;;;;;1999.90;999.90;;;5.50;98.50;;;;;;5019938;28;20453;-67
2023/02/27 10:32:28;;;;;;;1999.90;999.90;;;5.80;96.80;;;;;;5019638;28;21061;-66
2023/02/27 10:35:00;;;;;;;1999.90;999.90;;;5.10;95.70;;;;;;5020405;28;20480;-70
2023/02/27 10:37:27;;;;;;;1999.90;999.90;;;4.70;97.80;;;;;;5027812;28;20445;-69
2023/02/27 10:39:57;;;;;;;1999.90;999.90;;;4.70;98.00;;;;;;5028346;28;20456;-67
2023/02/27 10:42:29;;;;;;;1999.90;999.90;;;4.90;97.00;;;;;;5026867;28;20473;-66
2023/02/27 10:44:55;;;;;;;1999.90;999.90;;;4.80;96.90;;;;;;5027812;28;20441;-68
2023/02/27 10:47:24;;;;;;;1999.90;999.90;;;4.90;96.90;;;;;;5028417;28;20451;-67
2023/02/27 10:49:52;;;;;;;1999.90;999.90;;;4.90;96.80;;;;;;5025364;28;20445;-67
2023/02/27 10:52:20;;;;;;;1999.90;999.90;;;5.00;97.50;;;;;;5024266;28;20550;-69
2023/02/27 10:54:47;;;;;;;1999.90;999.90;;;5.40;96.00;;;;;;5025257;28;20481;-66
2023/02/27 10:57:29;;;;;;;1999.90;999.90;;;5.60;96.10;;;;;;5024061;28;20453;-71
2023/02/27 10:59:58;;;;;;;1999.90;999.90;;;5.40;95.40;;;;;;5024640;28;20943;-67
2023/02/27 11:02:31;;;;;;;1999.90;999.90;;;5.40;95.10;;;;;;5027454;28;20479;-67
2023/02/27 11:04:59;;;;;;;1999.90;999.90;;;5.60;94.90;;;;;;5027428;28;20440;-66
2023/02/27 11:07:29;;;;;;;1999.90;999.90;;;5.60;95.30;;;;;;5028757;28;20456;-67
2023/02/27 11:10:14;;;;;;;1999.90;999.90;;;5.80;95.60;;;;;;5027962;28;20951;-68
2023/02/27 11:12:56;;;;;;;1999.90;999.90;;;6.70;95.00;;;;;;5028068;28;20480;-66
2023/02/27 11:15:28;;;;;;;1999.90;999.90;;;7.30;91.90;;;;;;5029011;28;20480;-67
2023/02/27 11:17:55;;;;;;;1999.90;999.90;;;6.90;91.70;;;;;;5032428;28;20448;-69
2023/02/27 11:20:35;;;;;;;1999.90;999.90;;;7.30;90.90;;;;;;5035455;28;20448;-65
2023/02/27 11:23:05;;;;;;;1999.90;999.90;;;6.80;91.00;;;;;;5034584;28;20491;-68
2023/02/27 11:25:32;;;;;;;1999.90;999.90;;;7.30;93.10;;;;;;5028904;28;20460;-68
2023/02/27 11:28:19;;;;;;;1999.90;999.90;;;7.80;90.00;;;;;;5030940;28;20453;-67
2023/02/27 11:30:56;;;;;;;1999.90;999.90;;;8.30;92.40;;;;;;5032789;28;20451;-66
2023/02/27 11:33:25;;;;;;;1999.90;999.90;;;9.00;88.90;;;;;;5030942;28;20524;-67
2023/02/27 11:35:54;;;;;;;1999.90;999.90;;;8.60;86.80;;;;;;5032848;28;20484;-67
2023/02/27 11:38:23;;;;;;;1999.90;999.90;;;7.80;87.20;;;;;;5044048;28;20448;-68
2023/02/27 11:40:54;;;;;;;1999.90;999.90;;;7.80;87.10;;;;;;5037101;28;20444;-67
2023/02/27 11:43:24;;;;;;;1999.90;999.90;;;7.30;88.40;;;;;;5032197;28;20473;-67
2023/02/27 11:45:54;;;;;;;1999.90;999.90;;;7.80;90.00;;;;;;5033527;28;20447;-67
2023/02/27 11:48:25;;;;;;;1999.90;999.90;;;8.40;85.50;;;;;;5032680;28;20448;-67
2023/02/27 11:51:06;;;;;;;1999.90;999.90;;;9.10;83.70;;;;;;5032191;28;20452;-67
2023/02/27 11:54:14;;;;;;;1999.90;999.90;;;9.10;85.30;;;;;;5030553;28;20530;-67
2023/02/27 11:56:44;;;;;;;1999.90;999.90;;;9.90;81.60;;;;;;5031506;28;20485;-68
2023/02/27 11:59:29;;;;;;;1999.90;999.90;;;8.50;83.30;;;;;;5032052;28;20545;-68
2023/02/27 12:02:02;;;;;;;1999.90;999.90;;;8.50;86.10;;;;;;5031214;28;20823;-67
2023/02/27 12:04:41;;;;;;;1999.90;999.90;;;8.70;84.40;;;;;;5030393;28;20456;-68
2023/02/27 12:07:15;;;;;;;1999.90;999.90;;;7.70;86.60;;;;;;5031923;28;20485;-67
2023/02/27 12:09:50;;;;;;;1999.90;999.90;;;7.60;86.50;;;;;;5032384;28;20845;-67
2023/02/27 12:12:22;;;;;;;1999.90;999.90;;;8.40;86.40;;;;;;5031242;28;20640;-67
2023/02/27 12:14:59;;;;;;;1999.90;999.90;;;9.00;87.60;;;;;;5032196;28;20441;-67
2023/02/27 12:17:31;;;;;;;1999.90;999.90;;;9.50;80.10;;;;;;5032198;28;20453;-67
2023/02/27 12:20:11;;;;;;;1999.90;999.90;;;7.20;83.50;;;;;;5033403;28;20499;-67
2023/02/27 12:22:44;;;;;;;1999.90;999.90;;;6.00;87.90;;;;;;5032262;28;20471;-66
2023/02/27 12:25:19;;;;;;;1999.90;999.90;;;5.20;91.10;;;;;;5032668;28;20450;-66
2023/02/27 12:27:51;;;;;;;1999.90;999.90;;;5.00;91.60;;;;;;5033609;28;20539;-67